createdAt,value
2022-09-14T00:00:43.717Z,17.04
2022-09-14T00:01:43.785Z,17.03
2022-09-14T00:02:43.834Z,17.03
2022-09-14T00:03:43.776Z,16.98
2022-09-14T00:04:43.667Z,16.98
2022-09-14T00:05:43.666Z,16.98
2022-09-14T00:06:43.653Z,16.95
2022-09-14T00:07:43.649Z,16.95
2022-09-14T00:08:43.631Z,16.93
2022-09-14T00:09:43.618Z,16.93
2022-09-14T00:10:43.604Z,16.93
2022-09-14T00:11:43.614Z,16.93
2022-09-14T00:12:43.594Z,16.93
2022-09-14T00:13:43.577Z,16.92
2022-09-14T00:14:43.564Z,16.90
2022-09-14T00:15:43.545Z,16.92
2022-09-14T00:16:43.627Z,16.92
2022-09-14T00:17:43.528Z,16.92
2022-09-14T00:18:43.524Z,16.93
2022-09-14T00:19:43.505Z,16.92
2022-09-14T00:20:43.486Z,16.93
2022-09-14T00:21:43.495Z,16.95
2022-09-14T00:22:43.465Z,16.96
2022-09-14T00:23:43.455Z,16.98
2022-09-14T00:24:43.495Z,16.98
2022-09-14T00:25:43.434Z,16.96
2022-09-14T00:26:43.424Z,16.96
2022-09-14T00:27:43.426Z,16.98
2022-09-14T00:28:43.514Z,16.96
2022-09-14T00:29:43.394Z,16.96
2022-09-14T00:30:43.375Z,16.99
2022-09-14T00:31:43.432Z,16.96
2022-09-14T00:32:43.364Z,16.96
2022-09-14T00:33:43.353Z,16.98
2022-09-14T00:34:43.334Z,16.96
2022-09-14T00:35:43.321Z,16.99
2022-09-14T00:36:43.304Z,16.96
2022-09-14T00:37:43.302Z,16.99
2022-09-14T00:38:43.301Z,16.99
2022-09-14T00:39:43.334Z,16.98
2022-09-14T00:40:43.284Z,16.96
2022-09-14T00:41:43.251Z,16.96
2022-09-14T00:42:43.234Z,16.95
2022-09-14T00:43:43.265Z,16.92
2022-09-14T00:44:43.224Z,16.93
2022-09-14T00:45:43.253Z,16.92
2022-09-14T00:46:43.192Z,16.90
2022-09-14T00:47:43.211Z,16.89
2022-09-14T00:48:43.183Z,16.89
2022-09-14T00:49:43.163Z,16.89
2022-09-14T00:50:43.154Z,16.88
2022-09-14T00:51:43.143Z,16.89
2022-09-14T00:52:43.122Z,16.88
2022-09-14T00:53:43.111Z,16.89
2022-09-14T00:54:43.133Z,16.90
2022-09-14T00:55:43.093Z,16.90
2022-09-14T00:56:43.085Z,16.92
2022-09-14T00:57:43.071Z,16.92
2022-09-14T00:58:43.107Z,16.92
2022-09-14T00:59:43.060Z,16.92
2022-09-14T01:00:43.065Z,16.92
2022-09-14T01:01:43.051Z,16.93
2022-09-14T01:02:43.010Z,16.92
2022-09-14T01:03:43.003Z,16.95
2022-09-14T01:04:42.999Z,16.95
2022-09-14T01:05:42.980Z,16.96
2022-09-14T01:06:42.991Z,16.96
2022-09-14T01:07:42.998Z,16.96
2022-09-14T01:08:42.970Z,16.98
2022-09-14T01:09:42.948Z,16.98
2022-09-14T01:10:42.919Z,16.98
2022-09-14T01:11:42.921Z,16.98
2022-09-14T01:12:42.900Z,16.98
2022-09-14T01:13:42.880Z,16.98
2022-09-14T01:14:42.870Z,16.98
2022-09-14T01:15:42.862Z,16.96
2022-09-14T01:16:42.936Z,16.96
2022-09-14T01:17:42.869Z,16.96
2022-09-14T01:18:42.865Z,16.98
2022-09-14T01:19:42.820Z,16.98
2022-09-14T01:20:42.799Z,16.98
2022-09-14T01:21:42.800Z,16.98
2022-09-14T01:22:42.797Z,16.96
2022-09-14T01:23:42.780Z,16.96
2022-09-14T01:24:42.760Z,16.98
2022-09-14T01:25:42.748Z,16.96
2022-09-14T01:26:42.739Z,16.96
2022-09-14T01:27:42.746Z,16.95
2022-09-14T01:28:42.730Z,16.95
2022-09-14T01:29:42.708Z,16.95
2022-09-14T01:30:42.687Z,16.95
2022-09-14T01:31:42.726Z,16.96
2022-09-14T01:32:42.670Z,16.95
2022-09-14T01:33:42.667Z,16.93
2022-09-14T01:34:42.657Z,16.96
2022-09-14T01:35:42.635Z,16.95
2022-09-14T01:36:42.626Z,16.93
2022-09-14T01:37:42.618Z,16.95
2022-09-14T01:38:42.599Z,16.95
2022-09-14T01:39:42.624Z,16.93
2022-09-14T01:40:42.590Z,16.95
2022-09-14T01:41:42.568Z,16.96
2022-09-14T01:42:42.549Z,16.96
2022-09-14T01:43:42.544Z,16.96
2022-09-14T01:44:42.528Z,16.98
2022-09-14T01:45:42.556Z,16.96
2022-09-14T01:46:42.506Z,16.98
2022-09-14T01:47:42.496Z,16.99
2022-09-14T01:48:42.533Z,16.99
2022-09-14T01:49:42.476Z,16.99
2022-09-14T01:50:42.476Z,17.03
2022-09-14T01:51:42.445Z,17.00
2022-09-14T01:52:42.445Z,17.00
2022-09-14T01:53:42.426Z,17.00
2022-09-14T01:54:42.415Z,16.99
2022-09-14T01:55:42.406Z,17.00
2022-09-14T01:56:42.415Z,17.00
2022-09-14T01:57:42.378Z,16.99
2022-09-14T01:58:42.375Z,16.99
2022-09-14T01:59:42.386Z,16.98
2022-09-14T02:00:42.380Z,16.99
2022-09-14T02:01:42.394Z,16.99
2022-09-14T02:02:42.396Z,16.98
2022-09-14T02:03:42.314Z,17.00
2022-09-14T02:04:42.310Z,16.99
2022-09-14T02:05:42.292Z,16.98
2022-09-14T02:06:42.295Z,16.98
2022-09-14T02:07:42.266Z,16.99
2022-09-14T02:08:42.264Z,17.00
2022-09-14T02:09:42.244Z,16.99
2022-09-14T02:10:42.235Z,17.00
2022-09-14T02:11:42.224Z,16.99
2022-09-14T02:12:42.215Z,16.96
2022-09-14T02:13:42.224Z,16.98
2022-09-14T02:14:42.183Z,16.99
2022-09-14T02:15:42.174Z,16.99
2022-09-14T02:16:42.180Z,17.00
2022-09-14T02:17:42.153Z,16.99
2022-09-14T02:18:42.143Z,16.99
2022-09-14T02:19:42.145Z,17.00
2022-09-14T02:20:42.113Z,16.98
2022-09-14T02:21:42.112Z,16.96
2022-09-14T02:22:42.093Z,16.98
2022-09-14T02:23:42.090Z,16.98
2022-09-14T02:24:42.082Z,16.98
2022-09-14T02:25:42.063Z,16.98
2022-09-14T02:26:42.043Z,16.96
2022-09-14T02:27:42.042Z,16.99
2022-09-14T02:28:42.034Z,16.98
2022-09-14T02:29:42.032Z,16.99
2022-09-14T02:30:42.002Z,16.99
2022-09-14T02:31:42.034Z,17.00
2022-09-14T02:32:41.981Z,16.98
2022-09-14T02:33:41.972Z,16.98
2022-09-14T02:34:41.952Z,16.99
2022-09-14T02:35:41.961Z,17.00
2022-09-14T02:36:41.931Z,16.98
2022-09-14T02:37:41.922Z,16.96
2022-09-14T02:38:41.911Z,16.98
2022-09-14T02:39:42.070Z,16.96
2022-09-14T02:40:41.892Z,16.98
2022-09-14T02:41:41.884Z,16.95
2022-09-14T02:42:41.871Z,16.93
2022-09-14T02:43:41.859Z,16.96
2022-09-14T02:44:41.851Z,16.98
2022-09-14T02:45:41.842Z,16.95
2022-09-14T02:46:41.881Z,16.96
2022-09-14T02:47:41.810Z,16.98
2022-09-14T02:48:41.803Z,16.96
2022-09-14T02:49:41.796Z,16.96
2022-09-14T02:50:41.782Z,16.95
2022-09-14T02:51:41.769Z,16.98
2022-09-14T02:52:41.752Z,16.98
2022-09-14T02:53:41.743Z,16.99
2022-09-14T02:54:41.731Z,16.98
2022-09-14T02:55:41.730Z,16.98
2022-09-14T02:56:41.722Z,16.96
2022-09-14T02:57:41.699Z,16.96
2022-09-14T02:58:41.697Z,16.95
2022-09-14T02:59:41.678Z,16.96
2022-09-14T03:00:41.776Z,16.96
2022-09-14T03:01:41.693Z,16.96
2022-09-14T03:02:41.651Z,16.98
2022-09-14T03:03:41.629Z,16.96
2022-09-14T03:04:41.616Z,16.98
2022-09-14T03:05:41.611Z,16.96
2022-09-14T03:06:41.609Z,16.98
2022-09-14T03:07:41.587Z,16.96
2022-09-14T03:08:41.575Z,16.96
2022-09-14T03:09:41.558Z,16.95
2022-09-14T03:10:41.538Z,16.95
2022-09-14T03:11:41.539Z,16.95
2022-09-14T03:12:41.537Z,16.95
2022-09-14T03:13:41.508Z,16.95
2022-09-14T03:14:41.508Z,16.93
2022-09-14T03:15:41.489Z,16.95
2022-09-14T03:16:41.513Z,16.96
2022-09-14T03:17:41.478Z,16.95
2022-09-14T03:18:41.458Z,16.95
2022-09-14T03:19:41.448Z,16.93
2022-09-14T03:20:41.436Z,16.95
2022-09-14T03:21:41.418Z,16.96
2022-09-14T03:22:41.428Z,16.95
2022-09-14T03:23:41.399Z,16.95
2022-09-14T03:24:41.387Z,16.93
2022-09-14T03:25:41.385Z,16.95
2022-09-14T03:26:41.367Z,16.93
2022-09-14T03:27:41.367Z,16.95
2022-09-14T03:28:41.336Z,16.95
2022-09-14T03:29:41.327Z,16.95
2022-09-14T03:30:41.316Z,16.93
2022-09-14T03:31:41.426Z,16.95
2022-09-14T03:32:41.306Z,16.93
2022-09-14T03:33:41.288Z,16.92
2022-09-14T03:34:41.286Z,16.93
2022-09-14T03:35:41.266Z,16.90
2022-09-14T03:36:41.246Z,16.92
2022-09-14T03:37:41.238Z,16.92
2022-09-14T03:38:41.227Z,16.92
2022-09-14T03:39:41.223Z,16.92
2022-09-14T03:40:41.215Z,16.93
2022-09-14T03:41:41.199Z,16.93
2022-09-14T03:42:41.176Z,16.93
2022-09-14T03:43:41.184Z,16.93
2022-09-14T03:44:41.165Z,16.95
2022-09-14T03:45:41.145Z,16.92
2022-09-14T03:46:41.189Z,16.95
2022-09-14T03:47:41.126Z,16.93
2022-09-14T03:48:41.115Z,16.96
2022-09-14T03:49:41.124Z,16.96
2022-09-14T03:50:41.086Z,16.95
2022-09-14T03:51:41.083Z,16.96
2022-09-14T03:52:41.070Z,16.98
2022-09-14T03:53:41.055Z,16.96
2022-09-14T03:54:41.045Z,16.98
2022-09-14T03:55:41.049Z,16.99
2022-09-14T03:56:41.023Z,16.99
2022-09-14T03:57:41.016Z,16.99
2022-09-14T03:58:40.994Z,16.99
2022-09-14T03:59:43.706Z,16.99
2022-09-14T04:00:40.984Z,16.99
2022-09-14T04:01:41.025Z,16.99
2022-09-14T04:02:41.041Z,17.00
2022-09-14T04:03:40.944Z,17.00
2022-09-14T04:04:40.934Z,17.03
2022-09-14T04:05:40.944Z,17.03
2022-09-14T04:06:40.904Z,17.03
2022-09-14T04:07:40.895Z,17.03
2022-09-14T04:08:40.887Z,17.06
2022-09-14T04:09:40.873Z,17.06
2022-09-14T04:10:40.864Z,17.06
2022-09-14T04:11:40.865Z,17.08
2022-09-14T04:12:40.834Z,17.06
2022-09-14T04:13:40.823Z,17.08
2022-09-14T04:14:40.812Z,17.10
2022-09-14T04:15:40.839Z,17.08
2022-09-14T04:16:40.802Z,17.10
2022-09-14T04:17:40.782Z,17.10
2022-09-14T04:18:40.773Z,17.11
2022-09-14T04:19:40.762Z,17.10
2022-09-14T04:20:40.798Z,17.11
2022-09-14T04:21:40.782Z,17.13
2022-09-14T04:22:40.722Z,17.13
2022-09-14T04:23:57.019Z,17.11
2022-09-14T04:24:41.703Z,17.11
2022-09-14T04:25:40.691Z,17.14
2022-09-14T04:26:40.694Z,17.13
2022-09-14T04:27:40.672Z,17.13
2022-09-14T04:28:40.652Z,17.11
2022-09-14T04:29:40.643Z,17.13
2022-09-14T04:30:40.632Z,17.11
2022-09-14T04:31:40.665Z,17.13
2022-09-14T04:32:40.611Z,17.13
2022-09-14T04:33:40.627Z,17.13
2022-09-14T04:34:40.593Z,17.14
2022-09-14T04:35:40.581Z,17.13
2022-09-14T04:36:40.579Z,17.13
2022-09-14T04:37:40.552Z,17.14
2022-09-14T04:38:40.542Z,17.14
2022-09-14T04:39:40.531Z,17.14
2022-09-14T04:40:40.520Z,17.13
2022-09-14T04:41:40.510Z,17.13
2022-09-14T04:42:40.500Z,17.13
2022-09-14T04:43:40.480Z,17.13
2022-09-14T04:44:40.470Z,17.11
2022-09-14T04:45:40.461Z,17.13
2022-09-14T04:46:45.334Z,17.13
2022-09-14T04:47:41.459Z,17.13
2022-09-14T04:48:40.569Z,17.11
2022-09-14T04:49:40.420Z,17.11
2022-09-14T04:50:40.400Z,17.10
2022-09-14T04:51:40.420Z,17.08
2022-09-14T04:52:40.389Z,17.10
2022-09-14T04:53:40.370Z,17.08
2022-09-14T04:54:40.360Z,17.08
2022-09-14T04:55:40.348Z,17.07
2022-09-14T04:56:40.371Z,17.06
2022-09-14T04:57:40.349Z,17.06
2022-09-14T04:58:40.309Z,17.04
2022-09-14T04:59:40.301Z,17.06
2022-09-14T05:00:40.288Z,17.03
2022-09-14T05:01:40.344Z,17.06
2022-09-14T05:02:40.362Z,17.03
2022-09-14T05:03:40.333Z,17.03
2022-09-14T05:04:40.248Z,17.03
2022-09-14T05:05:44.264Z,17.03
2022-09-14T05:06:40.227Z,17.06
2022-09-14T05:07:40.218Z,17.07
2022-09-14T05:08:40.199Z,17.13
2022-09-14T05:09:40.186Z,17.23
2022-09-14T05:10:40.179Z,17.32
2022-09-14T05:11:40.169Z,17.38
2022-09-14T05:12:40.168Z,17.47
2022-09-14T05:13:40.146Z,17.57
2022-09-14T05:14:40.134Z,17.66
2022-09-14T05:15:40.197Z,17.76
2022-09-14T05:16:40.115Z,17.87
2022-09-14T05:17:41.043Z,18.02
2022-09-14T05:18:40.205Z,18.10
2022-09-14T05:19:40.078Z,18.19
2022-09-14T05:20:40.066Z,18.27
2022-09-14T05:21:40.046Z,18.36
2022-09-14T05:22:40.048Z,18.43
2022-09-14T05:23:40.056Z,18.55
2022-09-14T05:24:40.026Z,18.70
2022-09-14T05:25:40.008Z,18.82
2022-09-14T05:26:39.998Z,18.92
2022-09-14T05:27:39.986Z,18.97
2022-09-14T05:28:39.996Z,19.08
2022-09-14T05:29:39.963Z,19.14
2022-09-14T05:30:39.955Z,19.18
2022-09-14T05:31:39.977Z,19.25
2022-09-14T05:32:39.926Z,19.32
2022-09-14T05:33:39.966Z,19.39
2022-09-14T05:34:39.919Z,19.46
2022-09-14T05:35:39.888Z,19.47
2022-09-14T05:36:39.976Z,19.53
2022-09-14T05:37:39.894Z,19.58
2022-09-14T05:38:39.855Z,19.61
2022-09-14T05:39:39.855Z,19.68
2022-09-14T05:40:39.838Z,19.68
2022-09-14T05:41:39.835Z,19.72
2022-09-14T05:42:39.814Z,19.70
2022-09-14T05:43:39.795Z,19.73
2022-09-14T05:44:39.784Z,19.75
2022-09-14T05:45:39.775Z,19.76
2022-09-14T05:46:39.873Z,19.79
2022-09-14T05:47:39.755Z,19.80
2022-09-14T05:48:39.845Z,19.80
2022-09-14T05:49:39.724Z,19.84
2022-09-14T05:50:39.725Z,19.86
2022-09-14T05:51:39.715Z,19.90
2022-09-14T05:52:39.695Z,19.94
2022-09-14T05:53:39.684Z,19.95
2022-09-14T05:54:39.674Z,19.94
2022-09-14T05:55:39.664Z,19.94
2022-09-14T05:56:39.663Z,19.94
2022-09-14T05:57:39.635Z,19.95
2022-09-14T05:58:39.631Z,19.95
2022-09-14T05:59:39.614Z,19.98
2022-09-14T06:00:39.627Z,20.00
2022-09-14T06:01:39.649Z,20.00
2022-09-14T06:02:39.582Z,20.02
2022-09-14T06:03:39.622Z,20.00
2022-09-14T06:04:39.587Z,20.02
2022-09-14T06:05:39.590Z,20.03
2022-09-14T06:06:39.552Z,20.05
2022-09-14T06:07:39.533Z,20.06
2022-09-14T06:08:39.512Z,20.10
2022-09-14T06:09:39.513Z,20.12
2022-09-14T06:10:39.513Z,20.12
2022-09-14T06:11:39.503Z,20.15
2022-09-14T06:12:39.473Z,20.16
2022-09-14T06:13:39.466Z,20.21
2022-09-14T06:14:39.474Z,20.27
2022-09-14T06:15:39.454Z,20.30
2022-09-14T06:16:39.423Z,20.33
2022-09-14T06:17:39.430Z,20.34
2022-09-14T06:18:39.404Z,20.35
2022-09-14T06:19:39.392Z,20.39
2022-09-14T06:20:39.375Z,20.41
2022-09-14T06:21:39.371Z,20.39
2022-09-14T06:22:39.370Z,20.38
2022-09-14T06:23:39.406Z,20.38
2022-09-14T06:24:39.333Z,20.34
2022-09-14T06:25:39.323Z,20.34
2022-09-14T06:26:39.302Z,20.35
2022-09-14T06:27:39.302Z,20.41
2022-09-14T06:28:39.302Z,20.46
2022-09-14T06:29:39.282Z,20.49
2022-09-14T06:30:39.271Z,20.54
2022-09-14T06:31:39.265Z,20.58
2022-09-14T06:32:39.240Z,20.58
2022-09-14T06:33:39.242Z,20.51
2022-09-14T06:34:39.220Z,20.49
2022-09-14T06:35:39.213Z,20.39
2022-09-14T06:36:39.192Z,20.31
2022-09-14T06:37:39.235Z,20.25
2022-09-14T06:38:39.184Z,20.15
2022-09-14T06:39:39.162Z,20.09
2022-09-14T06:40:39.151Z,20.05
2022-09-14T06:41:39.143Z,19.98
2022-09-14T06:42:39.134Z,19.94
2022-09-14T06:43:39.142Z,19.90
2022-09-14T06:44:39.109Z,19.87
2022-09-14T06:45:39.099Z,19.84
2022-09-14T06:46:39.088Z,19.84
2022-09-14T06:47:39.089Z,19.80
2022-09-14T06:48:39.078Z,19.80
2022-09-14T06:49:39.051Z,19.80
2022-09-14T06:50:39.051Z,19.80
2022-09-14T06:51:39.029Z,19.79
2022-09-14T06:52:39.019Z,19.84
2022-09-14T06:53:39.008Z,19.84
2022-09-14T06:54:39.009Z,19.86
2022-09-14T06:55:38.980Z,19.88
2022-09-14T06:56:38.980Z,19.88
2022-09-14T06:57:42.763Z,19.91
2022-09-14T06:58:38.940Z,19.94
2022-09-14T06:59:38.948Z,19.97
2022-09-14T07:00:38.948Z,19.98
2022-09-14T07:01:38.918Z,20.03
2022-09-14T07:02:38.959Z,20.05
2022-09-14T07:03:38.889Z,20.08
2022-09-14T07:04:38.879Z,20.10
2022-09-14T07:05:38.887Z,20.10
2022-09-14T07:06:38.879Z,20.10
2022-09-14T07:07:38.849Z,20.13
2022-09-14T07:08:38.830Z,20.16
2022-09-14T07:09:38.830Z,20.24
2022-09-14T07:10:38.817Z,20.25
2022-09-14T07:11:38.799Z,20.30
2022-09-14T07:12:38.800Z,20.38
2022-09-14T07:13:38.779Z,20.39
2022-09-14T07:14:38.759Z,20.42
2022-09-14T07:15:38.759Z,20.47
2022-09-14T07:16:38.772Z,20.47
2022-09-14T07:17:38.731Z,20.51
2022-09-14T07:18:38.718Z,20.54
2022-09-14T07:19:38.708Z,20.58
2022-09-14T07:20:38.697Z,20.58
2022-09-14T07:21:38.688Z,20.61
2022-09-14T07:22:38.681Z,20.62
2022-09-14T07:23:38.678Z,20.64
2022-09-14T07:24:38.648Z,20.69
2022-09-14T07:25:38.639Z,20.71
2022-09-14T07:26:38.645Z,20.74
2022-09-14T07:27:38.629Z,20.77
2022-09-14T07:28:38.618Z,20.81
2022-09-14T07:29:38.600Z,20.87
2022-09-14T07:30:38.635Z,20.91
2022-09-14T07:31:38.577Z,20.93
2022-09-14T07:32:38.586Z,21.01
2022-09-14T07:33:38.558Z,21.04
2022-09-14T07:34:38.539Z,21.08
2022-09-14T07:35:38.541Z,21.14
2022-09-14T07:36:38.517Z,21.17
2022-09-14T07:37:38.507Z,21.21
2022-09-14T07:38:53.874Z,21.26
2022-09-14T07:39:39.478Z,21.32
2022-09-14T07:40:38.468Z,21.36
2022-09-14T07:41:38.488Z,21.44
2022-09-14T07:42:38.447Z,21.45
2022-09-14T07:43:38.438Z,21.51
2022-09-14T07:44:38.437Z,21.59
2022-09-14T07:45:38.490Z,21.63
2022-09-14T07:46:38.402Z,21.69
2022-09-14T07:47:38.397Z,21.74
2022-09-14T07:48:38.481Z,21.79
2022-09-14T07:49:38.366Z,21.83
2022-09-14T07:50:38.367Z,21.90
2022-09-14T07:51:38.347Z,21.97
2022-09-14T07:52:38.888Z,22.04
2022-09-14T07:53:38.328Z,22.09
2022-09-14T07:54:38.317Z,22.12
2022-09-14T07:55:38.377Z,22.17
2022-09-14T07:56:38.287Z,22.20
2022-09-14T07:57:54.981Z,22.20
2022-09-14T07:58:39.277Z,22.23
2022-09-14T07:59:38.289Z,22.25
2022-09-14T08:00:38.258Z,22.27
2022-09-14T08:01:38.278Z,22.29
2022-09-14T08:02:38.285Z,22.31
2022-09-14T08:03:38.216Z,22.34
2022-09-14T08:04:38.198Z,22.34
2022-09-14T08:05:38.198Z,22.35
2022-09-14T08:06:38.206Z,22.38
2022-09-14T08:07:38.167Z,22.44
2022-09-14T08:08:38.147Z,22.49
2022-09-14T08:09:38.137Z,22.53
2022-09-14T08:10:38.138Z,22.54
2022-09-14T08:11:38.121Z,22.60
2022-09-14T08:12:38.125Z,22.68
2022-09-14T08:13:38.096Z,22.71
2022-09-14T08:14:38.084Z,22.75
2022-09-14T08:15:38.078Z,22.78
2022-09-14T08:16:38.112Z,22.82
2022-09-14T08:17:38.047Z,22.83
2022-09-14T08:18:38.044Z,22.83
2022-09-14T08:19:38.026Z,22.86
2022-09-14T08:20:38.016Z,22.94
2022-09-14T08:21:39.840Z,23.01
2022-09-14T08:22:37.993Z,23.02
2022-09-14T08:23:38.058Z,23.04
2022-09-14T08:24:37.966Z,23.02
2022-09-14T08:25:37.985Z,23.04
2022-09-14T08:26:37.948Z,23.09
2022-09-14T08:27:37.935Z,23.09
2022-09-14T08:28:37.926Z,23.11
2022-09-14T08:29:37.907Z,23.15
2022-09-14T08:30:37.907Z,23.20
2022-09-14T08:31:37.964Z,23.23
2022-09-14T08:32:37.874Z,23.24
2022-09-14T08:33:37.905Z,23.31
2022-09-14T08:34:37.853Z,23.38
2022-09-14T08:35:56.900Z,23.43
2022-09-14T08:36:38.856Z,23.46
2022-09-14T08:37:37.824Z,23.53
2022-09-14T08:38:37.806Z,23.58
2022-09-14T08:39:37.805Z,23.62
2022-09-14T08:40:37.818Z,23.67
2022-09-14T08:41:37.775Z,23.70
2022-09-14T08:42:37.765Z,23.72
2022-09-14T08:43:37.747Z,23.76
2022-09-14T08:44:37.745Z,23.82
2022-09-14T08:45:37.775Z,23.85
2022-09-14T08:46:37.714Z,23.87
2022-09-14T08:47:37.705Z,23.86
2022-09-14T08:48:37.707Z,23.86
2022-09-14T08:49:37.684Z,23.94
2022-09-14T08:50:38.976Z,23.94
2022-09-14T08:51:37.706Z,24.00
2022-09-14T08:52:38.657Z,24.07
2022-09-14T08:53:37.635Z,24.13
2022-09-14T08:54:37.629Z,24.10
2022-09-14T08:55:37.626Z,24.14
2022-09-14T08:56:37.605Z,24.17
2022-09-14T08:57:37.594Z,24.13
2022-09-14T08:58:45.117Z,24.07
2022-09-14T08:59:38.565Z,24.05
2022-09-14T09:00:37.585Z,24.04
2022-09-14T09:01:37.572Z,24.00
2022-09-14T09:02:37.535Z,23.90
2022-09-14T09:03:37.561Z,23.87
2022-09-14T09:04:37.516Z,23.82
2022-09-14T09:05:37.526Z,23.77
2022-09-14T09:06:37.494Z,23.72
2022-09-14T09:07:37.474Z,23.67
2022-09-14T09:08:37.505Z,23.65
2022-09-14T09:09:37.454Z,23.60
2022-09-14T09:10:37.455Z,23.55
2022-09-14T09:11:37.493Z,23.52
2022-09-14T09:12:38.374Z,23.47
2022-09-14T09:13:37.414Z,23.34
2022-09-14T09:14:37.402Z,23.17
2022-09-14T09:15:37.384Z,22.99
2022-09-14T09:16:37.493Z,22.84
2022-09-14T09:17:37.364Z,22.65
2022-09-14T09:18:37.355Z,22.53
2022-09-14T09:19:37.334Z,22.47
2022-09-14T09:20:37.334Z,22.43
2022-09-14T09:21:37.335Z,22.38
2022-09-14T09:22:37.361Z,22.29
2022-09-14T09:23:37.294Z,22.20
2022-09-14T09:24:37.614Z,22.20
2022-09-14T09:25:37.272Z,22.17
2022-09-14T09:26:37.264Z,22.19
2022-09-14T09:27:37.254Z,22.23
2022-09-14T09:28:37.243Z,22.28
2022-09-14T09:29:37.233Z,22.35
2022-09-14T09:30:37.213Z,22.39
2022-09-14T09:31:37.252Z,22.43
2022-09-14T09:32:37.205Z,22.53
2022-09-14T09:33:37.184Z,22.60
2022-09-14T09:34:37.165Z,22.69
2022-09-14T09:35:37.161Z,22.75
2022-09-14T09:36:37.144Z,22.84
2022-09-14T09:37:37.145Z,22.93
2022-09-14T09:38:37.123Z,22.99
2022-09-14T09:39:37.115Z,23.07
2022-09-14T09:40:37.122Z,23.14
2022-09-14T09:41:37.083Z,23.20
2022-09-14T09:42:37.092Z,23.26
2022-09-14T09:43:49.398Z,23.32
2022-09-14T09:44:38.052Z,23.39
2022-09-14T09:45:37.043Z,23.50
2022-09-14T09:46:37.084Z,23.57
2022-09-14T09:47:37.023Z,23.61
2022-09-14T09:48:37.004Z,23.62
2022-09-14T09:49:37.003Z,23.61
2022-09-14T09:50:36.983Z,23.57
2022-09-14T09:51:36.972Z,23.52
2022-09-14T09:52:36.963Z,23.47
2022-09-14T09:53:36.947Z,23.39
2022-09-14T09:54:36.993Z,23.35
2022-09-14T09:55:36.922Z,23.26
2022-09-14T09:56:36.914Z,23.23
2022-09-14T09:57:36.904Z,23.20
2022-09-14T09:58:36.892Z,23.19
2022-09-14T09:59:36.882Z,23.22
2022-09-14T10:00:36.906Z,23.26
2022-09-14T10:01:36.974Z,23.29
2022-09-14T10:02:36.946Z,23.31
2022-09-14T10:03:36.837Z,23.34
2022-09-14T10:04:36.843Z,23.40
2022-09-14T10:05:36.822Z,23.45
2022-09-14T10:06:36.814Z,23.53
2022-09-14T10:07:36.865Z,23.57
2022-09-14T10:08:36.793Z,23.65
2022-09-14T10:09:36.762Z,23.79
2022-09-14T10:10:36.771Z,23.90
2022-09-14T10:11:36.744Z,24.05
2022-09-14T10:12:36.785Z,24.12
2022-09-14T10:13:38.688Z,24.16
2022-09-14T10:14:36.714Z,24.13
2022-09-14T10:15:36.742Z,24.14
2022-09-14T10:16:36.782Z,24.14
2022-09-14T10:17:36.673Z,24.14
2022-09-14T10:18:36.670Z,24.14
2022-09-14T10:19:36.661Z,24.10
2022-09-14T10:20:36.643Z,24.13
2022-09-14T10:21:36.643Z,24.14
2022-09-14T10:22:36.627Z,24.13
2022-09-14T10:23:36.613Z,24.13
2022-09-14T10:24:36.605Z,24.14
2022-09-14T10:25:36.591Z,24.16
2022-09-14T10:26:36.584Z,24.19
2022-09-14T10:27:38.256Z,24.23
2022-09-14T10:28:36.552Z,24.26
2022-09-14T10:29:36.542Z,24.31
2022-09-14T10:30:36.532Z,24.39
2022-09-14T10:31:36.642Z,24.49
2022-09-14T10:32:36.511Z,24.57
2022-09-14T10:33:36.515Z,24.69
2022-09-14T10:34:36.482Z,24.73
2022-09-14T10:35:36.472Z,24.79
2022-09-14T10:36:36.494Z,24.82
2022-09-14T10:37:36.473Z,24.91
2022-09-14T10:38:36.493Z,25.06
2022-09-14T10:39:36.432Z,25.16
2022-09-14T10:40:36.411Z,25.28
2022-09-14T10:41:36.412Z,25.25
2022-09-14T10:42:36.402Z,25.22
2022-09-14T10:43:36.392Z,25.16
2022-09-14T10:44:36.421Z,25.12
2022-09-14T10:45:37.309Z,25.15
2022-09-14T10:46:36.487Z,25.16
2022-09-14T10:47:36.359Z,25.07
2022-09-14T10:48:36.323Z,25.22
2022-09-14T10:49:36.321Z,25.42
2022-09-14T10:50:36.302Z,25.46
2022-09-14T10:51:36.292Z,25.67
2022-09-14T10:52:36.292Z,25.80
2022-09-14T10:53:36.298Z,25.86
2022-09-14T10:54:36.385Z,25.91
2022-09-14T10:55:36.252Z,26.11
2022-09-14T10:56:36.243Z,26.05
2022-09-14T10:57:36.246Z,26.09
2022-09-14T10:58:36.222Z,26.17
2022-09-14T10:59:36.210Z,26.28
2022-09-14T11:00:36.191Z,26.37
2022-09-14T11:01:36.267Z,26.40
2022-09-14T11:02:36.346Z,26.43
2022-09-14T11:03:36.171Z,26.44
2022-09-14T11:04:36.154Z,26.43
2022-09-14T11:05:36.141Z,26.40
2022-09-14T11:06:36.123Z,26.43
2022-09-14T11:07:36.117Z,26.49
2022-09-14T11:08:36.121Z,26.49
2022-09-14T11:09:36.092Z,26.57
2022-09-14T11:10:36.080Z,26.61
2022-09-14T11:11:36.071Z,26.62
2022-09-14T11:12:36.061Z,26.58
2022-09-14T11:13:36.042Z,26.58
2022-09-14T11:14:36.043Z,26.57
2022-09-14T11:15:36.065Z,26.54
2022-09-14T11:16:36.011Z,26.54
2022-09-14T11:17:36.001Z,26.59
2022-09-14T11:18:35.989Z,26.61
2022-09-14T11:19:35.983Z,26.62
2022-09-14T11:20:38.385Z,26.67
2022-09-14T11:21:36.955Z,26.61
2022-09-14T11:22:35.949Z,26.59
2022-09-14T11:23:35.931Z,26.52
2022-09-14T11:24:35.953Z,26.40
2022-09-14T11:25:35.912Z,26.39
2022-09-14T11:26:39.162Z,26.35
2022-09-14T11:27:36.881Z,26.35
2022-09-14T11:28:35.880Z,26.39
2022-09-14T11:29:35.873Z,26.40
2022-09-14T11:30:35.851Z,26.40
2022-09-14T11:31:35.921Z,26.40
2022-09-14T11:32:35.837Z,26.43
2022-09-14T11:33:35.822Z,26.40
2022-09-14T11:34:35.821Z,26.44
2022-09-14T11:35:35.800Z,26.40
2022-09-14T11:36:35.789Z,26.49
2022-09-14T11:37:35.834Z,26.44
2022-09-14T11:38:35.764Z,26.46
2022-09-14T11:39:35.752Z,26.54
2022-09-14T11:40:35.750Z,26.46
2022-09-14T11:41:35.748Z,26.43
2022-09-14T11:42:35.721Z,26.42
2022-09-14T11:43:35.709Z,26.44
2022-09-14T11:44:35.721Z,26.47
2022-09-14T11:45:35.692Z,26.47
2022-09-14T11:46:35.762Z,26.46
2022-09-14T11:47:35.665Z,26.39
2022-09-14T11:48:42.706Z,26.36
2022-09-14T11:49:36.641Z,26.37
2022-09-14T11:50:35.652Z,26.31
2022-09-14T11:51:35.621Z,26.25
2022-09-14T11:52:35.610Z,26.18
2022-09-14T11:53:35.592Z,26.18
2022-09-14T11:54:35.582Z,26.17
2022-09-14T11:55:35.570Z,26.18
2022-09-14T11:56:35.571Z,26.11
2022-09-14T11:57:35.550Z,26.02
2022-09-14T11:58:35.540Z,26.01
2022-09-14T11:59:35.522Z,26.01
2022-09-14T12:00:35.520Z,26.04
2022-09-14T12:01:35.515Z,25.99
2022-09-14T12:02:35.569Z,26.01
2022-09-14T12:03:35.536Z,26.01
2022-09-14T12:04:35.471Z,26.04
2022-09-14T12:05:35.467Z,25.97
2022-09-14T12:06:35.462Z,25.93
2022-09-14T12:07:35.432Z,25.90
2022-09-14T12:08:35.420Z,25.87
2022-09-14T12:09:35.411Z,25.82
2022-09-14T12:10:35.409Z,25.82
2022-09-14T12:11:35.401Z,25.82
2022-09-14T12:12:35.382Z,25.80
2022-09-14T12:13:35.369Z,25.72
2022-09-14T12:14:35.360Z,25.71
2022-09-14T12:15:35.399Z,25.69
2022-09-14T12:16:35.386Z,25.71
2022-09-14T12:17:39.821Z,25.69
2022-09-14T12:18:36.312Z,25.71
2022-09-14T12:19:35.312Z,25.71
2022-09-14T12:20:35.294Z,25.68
2022-09-14T12:21:35.271Z,25.68
2022-09-14T12:22:35.274Z,25.65
2022-09-14T12:23:35.294Z,25.59
2022-09-14T12:24:35.261Z,25.56
2022-09-14T12:25:35.241Z,25.50
2022-09-14T12:26:35.226Z,25.49
2022-09-14T12:27:35.230Z,25.39
2022-09-14T12:28:35.202Z,25.34
2022-09-14T12:29:35.181Z,25.34
2022-09-14T12:30:40.401Z,25.32
2022-09-14T12:31:36.347Z,25.32
2022-09-14T12:32:35.153Z,25.28
2022-09-14T12:33:35.160Z,25.25
2022-09-14T12:34:35.131Z,25.22
2022-09-14T12:35:35.121Z,25.20
2022-09-14T12:36:35.110Z,25.12
2022-09-14T12:37:35.122Z,25.09
2022-09-14T12:38:35.082Z,25.05
2022-09-14T12:39:35.082Z,24.95
2022-09-14T12:40:35.103Z,24.90
2022-09-14T12:41:35.052Z,24.88
2022-09-14T12:42:35.041Z,24.85
2022-09-14T12:43:35.041Z,24.80
2022-09-14T12:44:35.021Z,24.75
2022-09-14T12:45:35.029Z,24.73
2022-09-14T12:46:35.238Z,24.71
2022-09-14T12:47:34.981Z,24.69
2022-09-14T12:48:34.971Z,24.67
2022-09-14T12:49:34.971Z,24.64
2022-09-14T12:50:34.950Z,24.64
2022-09-14T12:51:34.951Z,24.63
2022-09-14T12:52:34.930Z,24.64